createdAt,value
2022-10-19T00:05:21.839Z,61.79
2022-10-19T00:15:28.004Z,62.10
2022-10-19T00:25:34.704Z,61.69
2022-10-19T00:35:41.064Z,61.70
2022-10-19T00:45:47.589Z,61.98
2022-10-19T00:55:54.424Z,61.74
2022-10-19T01:06:00.607Z,62.17
2022-10-19T01:16:07.690Z,62.35
2022-10-19T01:26:13.919Z,62.50
2022-10-19T01:36:20.048Z,62.14
2022-10-19T01:46:26.454Z,62.39
2022-10-19T01:56:32.912Z,62.81
2022-10-19T02:06:39.991Z,62.72
2022-10-19T02:16:46.585Z,62.50
2022-10-19T02:26:52.440Z,62.42
2022-10-19T02:36:58.884Z,62.50
2022-10-19T02:47:05.542Z,62.88
2022-10-19T02:57:12.277Z,63.07
2022-10-19T03:07:18.745Z,62.85
2022-10-19T03:17:25.045Z,62.64
2022-10-19T03:27:31.596Z,62.78
2022-10-19T03:37:38.021Z,62.98
2022-10-19T03:47:44.653Z,62.95
2022-10-19T03:57:51.701Z,62.88
2022-10-19T04:07:58.707Z,63.04
2022-10-19T04:18:05.572Z,63.01
2022-10-19T04:28:11.821Z,63.22
2022-10-19T04:38:18.172Z,62.94
2022-10-19T04:48:25.184Z,63.01
2022-10-19T04:58:31.254Z,63.09
2022-10-19T05:08:37.053Z,63.16
2022-10-19T05:18:43.801Z,63.30
2022-10-19T05:28:50.394Z,62.92
2022-10-19T05:38:56.927Z,63.07
2022-10-19T05:49:03.378Z,63.09
2022-10-19T05:59:10.574Z,63.08
2022-10-19T06:09:17.479Z,63.12
2022-10-19T06:19:23.820Z,64.17
2022-10-19T06:29:30.177Z,60.66
2022-10-19T06:39:36.706Z,56.22
2022-10-19T06:49:43.155Z,54.51
2022-10-19T06:59:51.397Z,53.58
2022-10-19T07:09:59.863Z,52.54
2022-10-19T07:20:06.233Z,52.07
2022-10-19T07:30:12.634Z,51.16
2022-10-19T07:40:18.870Z,51.11
2022-10-19T07:50:25.213Z,50.25
2022-10-19T08:00:31.364Z,50.31
2022-10-19T08:10:37.477Z,50.17
2022-10-19T08:20:44.089Z,50.82
2022-10-19T08:30:50.766Z,51.68
2022-10-19T08:40:57.335Z,51.50
2022-10-19T08:51:03.617Z,50.26
2022-10-19T09:01:09.673Z,49.99
2022-10-19T09:11:15.907Z,51.34
2022-10-19T09:21:30.912Z,51.34
2022-10-19T09:31:38.261Z,52.81
2022-10-19T09:41:45.618Z,53.36
2022-10-19T09:51:52.458Z,54.44
2022-10-19T10:01:58.619Z,54.46
2022-10-19T10:12:05.352Z,55.13
2022-10-19T10:22:11.922Z,55.37
2022-10-19T10:32:18.048Z,55.46
2022-10-19T10:42:24.711Z,55.39
2022-10-19T10:52:31.889Z,55.72
2022-10-19T11:02:38.099Z,55.73
2022-10-19T11:12:44.264Z,57.54
2022-10-19T11:22:51.148Z,57.38
2022-10-19T11:32:57.200Z,57.46
2022-10-19T11:43:03.540Z,57.16
2022-10-19T11:53:09.459Z,57.11
2022-10-19T12:03:15.681Z,57.91
2022-10-19T12:14:42.279Z,58.67
2022-10-19T12:24:48.213Z,58.67
2022-10-19T12:34:55.108Z,58.48
2022-10-19T12:45:01.731Z,57.80
2022-10-19T12:55:08.023Z,58.50
2022-10-19T13:05:14.752Z,58.59
2022-10-19T13:15:21.721Z,58.38
2022-10-19T13:25:28.404Z,58.43
2022-10-19T13:35:34.664Z,58.50
2022-10-19T13:45:44.636Z,58.52
2022-10-19T13:55:51.839Z,58.40
2022-10-19T14:05:59.076Z,58.33
2022-10-19T14:16:06.266Z,58.68
2022-10-19T14:26:12.552Z,58.37
2022-10-19T14:36:18.831Z,58.29
2022-10-19T14:46:25.597Z,58.24
2022-10-19T14:56:32.924Z,58.13
2022-10-19T15:06:39.204Z,58.16
2022-10-19T15:16:45.865Z,58.28
2022-10-19T15:27:01.875Z,58.07
2022-10-19T15:37:06.402Z,58.09
2022-10-19T15:47:15.531Z,58.39
2022-10-19T15:57:21.865Z,58.11
2022-10-19T16:07:28.898Z,57.88
2022-10-19T16:17:36.432Z,58.21
2022-10-19T16:27:43.907Z,58.53
2022-10-19T16:37:50.904Z,58.48
2022-10-19T16:47:57.809Z,58.57
2022-10-19T16:58:04.233Z,58.42
2022-10-19T17:08:11.138Z,58.58
2022-10-19T17:28:26.934Z,58.40
2022-10-19T17:38:34.887Z,58.29
2022-10-19T17:48:41.448Z,58.45
2022-10-19T17:58:48.366Z,58.48
2022-10-19T18:08:55.083Z,58.30
2022-10-19T18:19:01.515Z,58.60
2022-10-19T18:29:07.469Z,58.33
2022-10-19T18:39:13.948Z,58.22
2022-10-19T18:49:20.602Z,58.05
2022-10-19T19:09:34.705Z,58.03
2022-10-19T19:19:40.773Z,57.53
2022-10-19T19:29:46.869Z,57.95
2022-10-19T19:39:53.625Z,57.76
2022-10-19T19:49:59.913Z,57.63
2022-10-19T20:00:06.883Z,57.49
2022-10-19T20:10:13.191Z,57.64
2022-10-19T20:20:20.561Z,58.45
2022-10-19T20:30:27.279Z,57.74
2022-10-19T20:40:34.126Z,57.83
2022-10-19T20:50:40.447Z,57.58
2022-10-19T21:00:48.101Z,57.49
2022-10-19T21:10:54.438Z,58.19
2022-10-19T21:21:00.726Z,57.61
2022-10-19T21:31:06.733Z,57.75
2022-10-19T21:41:12.949Z,58.53
2022-10-19T21:51:19.088Z,58.74
2022-10-19T22:01:25.143Z,58.87
2022-10-19T22:11:31.695Z,59.26
2022-10-19T22:31:43.860Z,59.05
2022-10-19T22:41:50.087Z,59.57
2022-10-19T22:51:56.461Z,59.92
2022-10-19T23:02:03.020Z,59.73
2022-10-19T23:12:09.230Z,59.71
2022-10-19T23:22:16.119Z,59.77
2022-10-19T23:32:22.589Z,59.20
2022-10-19T23:42:28.759Z,59.32
2022-10-19T23:52:34.921Z,59.71
